createdAt,value
2019-03-15T00:01:41.336Z,92.58
2019-03-15T00:04:10.589Z,92.50
2019-03-15T00:06:39.881Z,92.21
2019-03-15T00:09:09.448Z,92.18
2019-03-15T00:11:38.819Z,92.14
2019-03-15T00:14:08.127Z,91.67
2019-03-15T00:16:37.636Z,91.54
2019-03-15T00:19:06.939Z,91.58
2019-03-15T00:21:36.182Z,91.64
2019-03-15T00:24:05.499Z,91.76
2019-03-15T00:26:34.783Z,91.88
2019-03-15T00:29:04.186Z,91.92
2019-03-15T00:31:33.513Z,91.87
2019-03-15T00:34:03.079Z,91.91
2019-03-15T00:36:32.306Z,92.08
2019-03-15T00:39:01.640Z,92.32
2019-03-15T00:41:30.986Z,92.41
2019-03-15T00:44:00.273Z,92.56
2019-03-15T00:46:29.599Z,92.48
2019-03-15T00:48:58.924Z,92.45
2019-03-15T00:51:28.227Z,92.37
2019-03-15T00:53:57.480Z,92.58
2019-03-15T00:56:26.756Z,92.70
2019-03-15T00:58:56.010Z,92.82
2019-03-15T01:01:25.328Z,93.00
2019-03-15T01:03:54.892Z,93.08
2019-03-15T01:06:24.381Z,93.22
2019-03-15T01:08:53.683Z,93.33
2019-03-15T01:11:22.963Z,93.59
2019-03-15T01:13:52.647Z,93.73
2019-03-15T01:16:21.922Z,94.10
2019-03-15T01:18:51.557Z,94.08
2019-03-15T01:21:20.934Z,94.18
2019-03-15T01:23:50.250Z,94.25
2019-03-15T01:26:19.615Z,94.34
2019-03-15T01:28:49.154Z,94.28
2019-03-15T01:31:18.403Z,94.25
2019-03-15T01:33:47.703Z,94.07
2019-03-15T01:36:17.010Z,93.98
2019-03-15T01:38:46.260Z,94.02
2019-03-15T01:41:15.597Z,93.86
2019-03-15T01:43:44.989Z,93.73
2019-03-15T01:46:14.374Z,93.58
2019-03-15T01:48:43.701Z,93.55
2019-03-15T01:51:12.904Z,93.52
2019-03-15T01:53:42.257Z,93.39
2019-03-15T01:56:11.608Z,93.27
2019-03-15T01:58:40.871Z,93.11
2019-03-15T02:01:10.122Z,93.13
2019-03-15T02:03:39.648Z,93.13
2019-03-15T02:06:09.008Z,93.11
2019-03-15T02:08:38.300Z,93.07
2019-03-15T02:11:07.632Z,93.02
2019-03-15T02:13:36.976Z,92.87
2019-03-15T02:16:06.311Z,92.88
2019-03-15T02:18:35.688Z,92.83
2019-03-15T02:21:05.033Z,92.95
2019-03-15T02:23:34.286Z,92.96
2019-03-15T02:26:03.530Z,93.10
2019-03-15T02:28:32.849Z,93.06
2019-03-15T02:31:02.239Z,93.08
2019-03-15T02:33:33.408Z,93.15
2019-03-15T02:36:02.583Z,92.89
2019-03-15T02:38:31.915Z,93.00
2019-03-15T02:41:01.201Z,92.98
2019-03-15T02:43:30.482Z,93.17
2019-03-15T02:45:59.758Z,93.22
2019-03-15T02:48:29.055Z,93.18
2019-03-15T02:50:58.389Z,93.21
2019-03-15T02:53:27.699Z,93.03
2019-03-15T02:55:57.038Z,92.98
2019-03-15T02:58:27.883Z,92.61
2019-03-15T03:00:57.324Z,92.77
2019-03-15T03:03:26.556Z,93.01
2019-03-15T03:05:55.810Z,93.16
2019-03-15T03:08:25.099Z,93.34
2019-03-15T03:10:55.929Z,93.34
2019-03-15T03:13:25.550Z,93.29
2019-03-15T03:15:54.796Z,93.39
2019-03-15T03:18:24.124Z,93.63
2019-03-15T03:20:53.677Z,93.83
2019-03-15T03:23:23.038Z,93.97
2019-03-15T03:25:52.327Z,93.97
2019-03-15T03:28:21.688Z,93.94
2019-03-15T03:30:50.971Z,93.87
2019-03-15T03:33:20.226Z,93.93
2019-03-15T03:35:49.501Z,93.95
2019-03-15T03:38:18.761Z,93.99
2019-03-15T03:40:48.089Z,93.88
2019-03-15T03:43:17.495Z,93.84
2019-03-15T03:45:46.801Z,93.89
2019-03-15T03:48:16.095Z,93.89
2019-03-15T03:50:45.398Z,93.96
2019-03-15T03:53:14.662Z,94.00
2019-03-15T03:55:43.913Z,93.93
2019-03-15T03:58:13.279Z,93.90
2019-03-15T04:00:42.608Z,93.80
2019-03-15T04:03:11.875Z,93.78
2019-03-15T04:05:41.316Z,93.76
2019-03-15T04:08:10.753Z,93.61
2019-03-15T04:10:40.023Z,93.63
2019-03-15T04:13:09.309Z,93.59
2019-03-15T04:15:38.654Z,93.55
2019-03-15T04:18:07.916Z,93.61
2019-03-15T04:20:37.315Z,93.68
2019-03-15T04:23:06.681Z,93.60
2019-03-15T04:25:36.342Z,93.61
2019-03-15T04:28:05.607Z,93.27
2019-03-15T04:30:35.004Z,93.17
2019-03-15T04:33:04.297Z,93.13
2019-03-15T04:35:33.639Z,93.29
2019-03-15T04:38:02.934Z,93.17
2019-03-15T04:40:32.200Z,93.06
2019-03-15T04:43:01.459Z,93.18
2019-03-15T04:45:30.812Z,93.23
2019-03-15T04:48:00.079Z,93.32
2019-03-15T04:50:29.369Z,93.41
2019-03-15T04:52:58.731Z,93.38
2019-03-15T04:55:28.051Z,93.44
2019-03-15T04:57:57.444Z,93.22
2019-03-15T05:00:26.722Z,93.04
2019-03-15T05:02:55.958Z,92.93
2019-03-15T05:05:25.255Z,93.00
2019-03-15T05:07:54.540Z,93.12
2019-03-15T05:10:23.858Z,93.28
2019-03-15T05:12:53.185Z,93.48
2019-03-15T05:15:22.526Z,93.60
2019-03-15T05:17:51.812Z,93.66
2019-03-15T05:20:21.422Z,93.55
2019-03-15T05:22:50.743Z,93.47
2019-03-15T05:25:20.031Z,93.58
2019-03-15T05:27:49.532Z,93.66
2019-03-15T05:30:18.849Z,93.46
2019-03-15T05:32:48.244Z,93.65
2019-03-15T05:35:17.499Z,93.75
2019-03-15T05:37:46.906Z,93.82
2019-03-15T05:40:16.276Z,93.94
2019-03-15T05:42:45.539Z,93.97
2019-03-15T05:45:14.796Z,94.06
2019-03-15T05:47:44.154Z,94.07
2019-03-15T05:50:13.630Z,94.12
2019-03-15T05:52:42.930Z,94.20
2019-03-15T05:55:12.532Z,94.21
2019-03-15T05:57:41.776Z,94.27
2019-03-15T06:00:12.488Z,94.29
2019-03-15T06:02:41.823Z,94.29
2019-03-15T06:05:11.271Z,94.31
2019-03-15T06:07:40.585Z,94.26
2019-03-15T06:10:10.063Z,94.04
2019-03-15T06:12:39.310Z,93.82
2019-03-15T06:15:08.709Z,93.63
2019-03-15T06:17:38.036Z,93.22
2019-03-15T06:20:07.715Z,93.20
2019-03-15T06:22:37.056Z,93.07
2019-03-15T06:25:06.879Z,93.06
2019-03-15T06:27:36.210Z,93.11
2019-03-15T06:30:05.850Z,93.26
2019-03-15T06:32:35.076Z,93.33
2019-03-15T06:35:04.901Z,93.25
2019-03-15T06:37:34.202Z,93.10
2019-03-15T06:40:03.583Z,93.12
2019-03-15T06:42:32.931Z,92.83
2019-03-15T06:45:02.310Z,92.55
2019-03-15T06:47:31.865Z,92.18
2019-03-15T06:50:01.204Z,92.06
2019-03-15T06:52:30.516Z,91.65
2019-03-15T06:55:00.118Z,91.64
2019-03-15T06:57:29.538Z,91.78
2019-03-15T06:59:59.715Z,91.45
2019-03-15T07:02:29.069Z,91.08
2019-03-15T07:04:58.388Z,90.88
2019-03-15T07:07:27.730Z,91.06
2019-03-15T07:09:57.024Z,91.23
2019-03-15T07:12:26.270Z,91.31
2019-03-15T07:14:55.568Z,90.90
2019-03-15T07:17:25.083Z,90.00
2019-03-15T07:19:54.676Z,89.68
2019-03-15T07:22:24.092Z,89.90
2019-03-15T07:24:53.337Z,89.97
2019-03-15T07:27:22.670Z,88.92
2019-03-15T07:29:52.082Z,88.77
2019-03-15T07:32:21.704Z,87.63
2019-03-15T07:34:51.044Z,86.51
2019-03-15T07:37:21.481Z,85.23
2019-03-15T07:39:50.830Z,84.47
2019-03-15T07:42:20.110Z,84.29
2019-03-15T07:44:49.393Z,84.15
2019-03-15T07:47:18.634Z,82.43
2019-03-15T07:49:47.969Z,82.94
2019-03-15T07:52:17.315Z,83.38
2019-03-15T07:54:46.628Z,82.74
2019-03-15T07:57:16.136Z,82.92
2019-03-15T07:59:45.570Z,82.70
2019-03-15T08:02:14.808Z,81.66
2019-03-15T08:04:44.077Z,81.51
2019-03-15T08:07:13.339Z,79.83
2019-03-15T08:09:42.921Z,76.66
2019-03-15T08:12:12.265Z,76.60
2019-03-15T08:14:41.574Z,76.26
2019-03-15T08:17:10.856Z,77.83
2019-03-15T08:19:40.171Z,77.11
2019-03-15T08:22:09.426Z,77.42
2019-03-15T08:24:50.771Z,77.98
2019-03-15T08:27:09.701Z,78.04
2019-03-15T08:29:39.029Z,79.50
2019-03-15T08:32:08.383Z,79.39
2019-03-15T08:34:37.845Z,80.64
2019-03-15T08:37:07.151Z,81.09
2019-03-15T08:39:36.484Z,80.19
2019-03-15T08:42:05.812Z,80.49
2019-03-15T08:44:35.109Z,80.79
2019-03-15T08:47:04.434Z,78.48
2019-03-15T08:49:33.701Z,78.57
2019-03-15T08:52:04.143Z,80.39
2019-03-15T08:54:33.556Z,80.27
2019-03-15T08:57:02.858Z,80.30
2019-03-15T08:59:32.325Z,79.26
2019-03-15T09:02:01.652Z,77.98
2019-03-15T09:04:30.952Z,77.44
2019-03-15T09:07:00.527Z,75.93
2019-03-15T09:09:29.817Z,73.64
2019-03-15T09:11:59.179Z,71.33
2019-03-15T09:14:28.435Z,70.72
2019-03-15T09:16:57.705Z,69.32
2019-03-15T09:19:27.000Z,68.91
2019-03-15T09:21:56.340Z,67.20
2019-03-15T09:24:25.672Z,67.26
2019-03-15T09:26:55.182Z,68.58
2019-03-15T09:29:24.476Z,69.06
2019-03-15T09:32:05.247Z,69.72
2019-03-15T09:34:24.921Z,70.60
2019-03-15T09:36:54.429Z,71.53
2019-03-15T09:39:23.794Z,72.91
2019-03-15T09:41:53.075Z,74.22
2019-03-15T09:44:22.383Z,73.12
2019-03-15T09:46:51.719Z,72.22
2019-03-15T09:49:21.011Z,72.51
2019-03-15T09:51:50.345Z,73.98
2019-03-15T09:54:19.681Z,74.72
2019-03-15T09:56:48.996Z,74.83
2019-03-15T09:59:19.531Z,75.12
2019-03-15T10:01:48.800Z,74.53
2019-03-15T10:04:18.091Z,75.47
2019-03-15T10:06:47.406Z,75.68
2019-03-15T10:09:16.716Z,75.01
2019-03-15T10:11:46.020Z,76.00
2019-03-15T10:14:15.354Z,75.74
2019-03-15T10:16:44.652Z,75.55
2019-03-15T10:19:13.853Z,75.92
2019-03-15T10:21:43.145Z,73.49
2019-03-15T10:24:15.502Z,72.72
2019-03-15T10:26:43.417Z,70.68
2019-03-15T10:29:15.730Z,69.90
2019-03-15T10:31:43.758Z,67.21
2019-03-15T10:34:13.058Z,63.28
2019-03-15T10:36:42.384Z,63.66
2019-03-15T10:39:11.828Z,62.56
2019-03-15T10:41:41.076Z,65.32
2019-03-15T10:44:10.332Z,67.08
2019-03-15T10:46:40.504Z,69.42
2019-03-15T10:49:09.936Z,69.37
2019-03-15T10:51:39.258Z,70.21
2019-03-15T10:54:08.596Z,69.77
2019-03-15T10:56:37.903Z,70.52
2019-03-15T10:59:07.191Z,71.14
2019-03-15T11:01:36.486Z,70.22
2019-03-15T11:04:05.760Z,71.67
2019-03-15T11:06:35.066Z,70.91
2019-03-15T11:09:04.777Z,71.47
2019-03-15T11:11:34.112Z,70.88
2019-03-15T11:14:03.378Z,71.97
2019-03-15T11:16:32.644Z,72.10
2019-03-15T11:19:01.990Z,71.25
2019-03-15T11:21:31.303Z,70.89
2019-03-15T11:24:00.629Z,72.26
2019-03-15T11:26:29.949Z,72.75
2019-03-15T11:28:59.227Z,73.30
2019-03-15T11:31:28.541Z,73.54
2019-03-15T11:33:57.830Z,73.03
2019-03-15T11:36:27.062Z,74.17
2019-03-15T11:38:56.389Z,74.03
2019-03-15T11:41:25.944Z,74.99
2019-03-15T11:43:55.257Z,75.25
2019-03-15T11:46:24.520Z,76.18
2019-03-15T11:48:53.798Z,76.37
2019-03-15T11:51:23.051Z,77.12
2019-03-15T11:53:52.358Z,74.24
2019-03-15T11:56:26.990Z,73.91
2019-03-15T11:58:52.712Z,73.14
2019-03-15T12:01:22.076Z,71.74
2019-03-15T12:03:53.237Z,72.60
2019-03-15T12:06:22.483Z,72.71
2019-03-15T12:08:51.813Z,69.77
2019-03-15T12:11:21.064Z,70.15
2019-03-15T12:13:50.343Z,70.98
2019-03-15T12:16:19.602Z,70.74
2019-03-15T12:18:48.909Z,69.71
2019-03-15T12:21:18.756Z,70.42
2019-03-15T12:23:48.130Z,69.16
2019-03-15T12:26:17.398Z,69.16
2019-03-15T12:28:46.714Z,70.80
2019-03-15T12:31:16.038Z,70.25
2019-03-15T12:33:45.345Z,70.28
2019-03-15T12:36:14.660Z,68.16
2019-03-15T12:38:43.927Z,69.13
2019-03-15T12:41:13.242Z,69.80
2019-03-15T12:43:42.595Z,69.86
2019-03-15T12:46:11.866Z,70.93
2019-03-15T12:48:41.231Z,71.10
2019-03-15T12:51:10.775Z,70.83
2019-03-15T12:53:40.058Z,70.25
2019-03-15T12:56:11.031Z,69.27
2019-03-15T12:58:40.645Z,69.65
2019-03-15T13:01:09.916Z,69.75
2019-03-15T13:03:39.153Z,70.67
2019-03-15T13:06:08.644Z,70.70
2019-03-15T13:08:38.051Z,69.62
2019-03-15T13:11:07.431Z,71.24
2019-03-15T13:13:36.743Z,69.16
2019-03-15T13:16:06.149Z,70.08
2019-03-15T13:18:35.433Z,70.53
2019-03-15T13:21:04.749Z,70.77
2019-03-15T13:23:34.121Z,70.83
2019-03-15T13:26:03.423Z,72.46
2019-03-15T13:28:32.769Z,70.96
2019-03-15T13:31:02.104Z,72.66
2019-03-15T13:33:31.426Z,72.68
2019-03-15T13:36:00.839Z,72.98
2019-03-15T13:38:30.099Z,72.86
2019-03-15T13:40:59.362Z,72.73
2019-03-15T13:43:28.617Z,72.11
2019-03-15T13:45:57.974Z,72.54
2019-03-15T13:48:27.319Z,73.49
2019-03-15T13:50:56.604Z,72.94
2019-03-15T13:53:25.834Z,72.95
2019-03-15T13:55:55.151Z,73.55
2019-03-15T13:58:24.524Z,72.98
2019-03-15T14:00:53.909Z,73.60
2019-03-15T14:03:23.208Z,73.99
2019-03-15T14:05:52.553Z,74.48
2019-03-15T14:08:21.951Z,74.50
2019-03-15T14:10:51.203Z,73.75
2019-03-15T14:13:20.503Z,73.34
2019-03-15T14:15:49.741Z,74.12
2019-03-15T14:18:21.592Z,74.49
2019-03-15T14:20:50.189Z,75.33
2019-03-15T14:23:19.492Z,76.61
2019-03-15T14:25:49.061Z,76.98
2019-03-15T14:28:18.301Z,78.11
2019-03-15T14:30:47.593Z,78.77
2019-03-15T14:33:16.860Z,79.08
2019-03-15T14:35:46.191Z,80.28
2019-03-15T14:38:15.776Z,81.01
2019-03-15T14:40:45.241Z,81.05
2019-03-15T14:43:14.817Z,82.38
2019-03-15T14:45:44.131Z,82.67
2019-03-15T14:48:13.701Z,83.74
2019-03-15T14:50:42.950Z,83.28
2019-03-15T14:53:12.208Z,82.91
2019-03-15T14:55:41.517Z,84.79
2019-03-15T14:58:10.849Z,84.86
2019-03-15T15:00:40.183Z,85.46
2019-03-15T15:03:09.513Z,85.38
2019-03-15T15:05:38.792Z,85.83
2019-03-15T15:08:08.123Z,85.98
2019-03-15T15:10:37.582Z,86.60
2019-03-15T15:13:06.904Z,87.29
2019-03-15T15:15:36.213Z,88.14
2019-03-15T15:18:05.511Z,88.50
2019-03-15T15:20:34.815Z,88.45
2019-03-15T15:23:06.691Z,88.46
2019-03-15T15:25:35.944Z,89.07
2019-03-15T15:28:05.279Z,89.08
2019-03-15T15:30:34.576Z,89.11
2019-03-15T15:33:03.881Z,89.45
2019-03-15T15:35:33.226Z,90.10
2019-03-15T15:38:02.508Z,89.28
2019-03-15T15:40:31.726Z,89.96
2019-03-15T15:43:01.014Z,89.58
2019-03-15T15:45:30.317Z,89.40
2019-03-15T15:47:59.662Z,89.13
2019-03-15T15:50:28.999Z,89.11
2019-03-15T15:52:58.379Z,89.76
2019-03-15T15:55:27.682Z,89.19
2019-03-15T15:57:56.915Z,89.06
2019-03-15T16:00:26.240Z,89.21
2019-03-15T16:02:55.565Z,89.30
2019-03-15T16:05:24.833Z,89.14
2019-03-15T16:07:56.457Z,89.28
2019-03-15T16:10:25.248Z,89.42
2019-03-15T16:12:54.708Z,88.99
2019-03-15T16:15:24.003Z,87.33
2019-03-15T16:17:53.326Z,87.73
2019-03-15T16:20:22.659Z,87.22
2019-03-15T16:22:51.899Z,87.93
2019-03-15T16:25:21.197Z,88.89
2019-03-15T16:27:50.520Z,89.18
2019-03-15T16:30:19.911Z,89.32
2019-03-15T16:32:49.383Z,89.77
2019-03-15T16:35:18.763Z,89.55
2019-03-15T16:37:48.133Z,89.17
2019-03-15T16:40:17.503Z,88.62
2019-03-15T16:42:46.964Z,89.73
2019-03-15T16:45:16.546Z,89.90
2019-03-15T16:47:45.863Z,89.65
2019-03-15T16:50:15.380Z,90.40
2019-03-15T16:52:44.995Z,90.84
2019-03-15T16:55:14.275Z,91.24
2019-03-15T16:57:43.500Z,91.46
2019-03-15T17:00:13.233Z,90.95
2019-03-15T17:02:42.509Z,91.58
2019-03-15T17:05:11.902Z,91.24
2019-03-15T17:07:41.261Z,91.30
2019-03-15T17:10:10.895Z,91.90
2019-03-15T17:12:40.210Z,91.83
2019-03-15T17:15:10.917Z,92.48
2019-03-15T17:17:40.242Z,92.48
2019-03-15T17:20:10.276Z,93.00
2019-03-15T17:22:39.511Z,92.95
2019-03-15T17:25:09.506Z,92.72
2019-03-15T17:27:38.830Z,92.71
2019-03-15T17:30:10.406Z,92.62
2019-03-15T17:32:40.024Z,92.83
2019-03-15T17:35:11.020Z,92.95
2019-03-15T17:37:40.308Z,93.21
2019-03-15T17:40:11.505Z,93.26
2019-03-15T17:42:40.884Z,93.30
2019-03-15T17:45:10.377Z,93.71
2019-03-15T17:47:39.723Z,93.76
2019-03-15T17:50:12.217Z,94.04
2019-03-15T17:52:41.496Z,93.85
2019-03-15T17:55:11.003Z,93.53
2019-03-15T17:57:40.515Z,93.46
2019-03-15T18:00:16.135Z,93.63
2019-03-15T18:02:45.609Z,93.75
2019-03-15T18:05:15.316Z,94.00
2019-03-15T18:07:44.768Z,93.80
2019-03-15T18:10:14.313Z,94.05
2019-03-15T18:12:43.663Z,93.97
2019-03-15T18:15:13.368Z,94.18
2019-03-15T18:17:42.839Z,94.66
2019-03-15T18:20:12.202Z,94.55
2019-03-15T18:22:41.525Z,94.56
2019-03-15T18:25:12.538Z,94.60
2019-03-15T18:27:41.845Z,94.63
2019-03-15T18:30:11.816Z,94.65
2019-03-15T18:32:41.129Z,94.62
2019-03-15T18:35:11.334Z,94.30
2019-03-15T18:37:40.635Z,94.20
2019-03-15T18:40:11.342Z,94.13
2019-03-15T18:42:40.750Z,94.08
2019-03-15T18:45:11.543Z,94.39
2019-03-15T18:47:40.884Z,94.55
2019-03-15T18:50:13.379Z,94.32
2019-03-15T18:52:42.753Z,94.29
2019-03-15T18:55:12.176Z,93.74
2019-03-15T18:57:41.517Z,93.78
2019-03-15T19:00:13.718Z,93.41
2019-03-15T19:02:43.032Z,93.49
2019-03-15T19:05:12.637Z,93.54
2019-03-15T19:07:41.910Z,93.52
2019-03-15T19:10:12.024Z,93.55
2019-03-15T19:12:41.356Z,93.46
2019-03-15T19:15:11.874Z,92.94
2019-03-15T19:17:41.156Z,92.71
2019-03-15T19:20:10.430Z,92.83
2019-03-15T19:22:39.702Z,93.15
2019-03-15T19:25:09.264Z,93.42
2019-03-15T19:27:38.621Z,93.53
2019-03-15T19:30:08.975Z,93.57
2019-03-15T19:32:38.334Z,93.92
2019-03-15T19:35:08.228Z,93.98
2019-03-15T19:37:37.807Z,94.11
2019-03-15T19:40:08.240Z,93.61
2019-03-15T19:42:37.563Z,93.67
2019-03-15T19:45:07.792Z,93.71
2019-03-15T19:47:37.144Z,93.70
2019-03-15T19:50:07.914Z,93.54
2019-03-15T19:52:37.196Z,93.26
2019-03-15T19:55:07.276Z,93.19
2019-03-15T19:57:36.620Z,93.42
2019-03-15T20:00:08.514Z,93.04
2019-03-15T20:02:37.660Z,93.04
2019-03-15T20:05:06.989Z,93.04
2019-03-15T20:07:36.690Z,92.88
2019-03-15T20:10:06.479Z,92.89
2019-03-15T20:12:35.779Z,92.23
2019-03-15T20:15:05.446Z,92.31
2019-03-15T20:17:34.775Z,91.78
2019-03-15T20:20:04.440Z,91.61
2019-03-15T20:22:33.759Z,91.87
2019-03-15T20:25:03.034Z,91.74
2019-03-15T20:27:32.342Z,92.04
2019-03-15T20:30:01.722Z,92.51
2019-03-15T20:32:30.999Z,92.83
2019-03-15T20:35:00.341Z,93.33
2019-03-15T20:37:29.719Z,93.06
2019-03-15T20:39:59.050Z,92.97
2019-03-15T20:42:28.372Z,93.40
2019-03-15T20:44:57.684Z,93.12
2019-03-15T20:47:26.961Z,93.15
2019-03-15T20:49:56.247Z,92.40
2019-03-15T20:52:25.558Z,92.42
2019-03-15T20:54:54.856Z,92.65
2019-03-15T20:57:24.238Z,92.64
2019-03-15T20:59:53.526Z,92.03
2019-03-15T21:02:22.844Z,92.06
2019-03-15T21:04:52.244Z,92.15
2019-03-15T21:07:21.519Z,92.18
2019-03-15T21:09:50.776Z,92.27
2019-03-15T21:12:20.063Z,92.07
2019-03-15T21:14:49.381Z,92.17
2019-03-15T21:17:18.715Z,91.92
2019-03-15T21:19:48.149Z,91.65
2019-03-15T21:22:17.490Z,91.57
2019-03-15T21:24:46.769Z,91.62
2019-03-15T21:27:16.061Z,91.12
2019-03-15T21:29:45.475Z,91.20
2019-03-15T21:32:14.910Z,91.12
2019-03-15T21:34:44.536Z,91.27
2019-03-15T21:37:13.946Z,90.92
2019-03-15T21:39:43.488Z,91.07
2019-03-15T21:42:12.785Z,91.22
2019-03-15T21:44:42.077Z,91.48
2019-03-15T21:47:11.327Z,91.48
2019-03-15T21:49:40.610Z,91.22
2019-03-15T21:52:10.266Z,90.96
2019-03-15T21:54:39.523Z,90.89
2019-03-15T21:57:08.786Z,91.03
2019-03-15T21:59:39.220Z,90.90
2019-03-15T22:02:08.514Z,90.83
2019-03-15T22:04:37.786Z,91.11
2019-03-15T22:07:07.095Z,90.97
2019-03-15T22:09:36.814Z,91.12
2019-03-15T22:12:06.265Z,91.32
2019-03-15T22:14:35.983Z,91.27
2019-03-15T22:17:05.282Z,91.04
2019-03-15T22:19:34.671Z,91.11
2019-03-15T22:22:03.897Z,91.16
2019-03-15T22:24:33.237Z,91.31
2019-03-15T22:27:02.844Z,91.00
2019-03-15T22:29:32.412Z,90.86
2019-03-15T22:32:01.912Z,90.82
2019-03-15T22:34:31.279Z,90.97
2019-03-15T22:37:00.508Z,90.40
2019-03-15T22:39:29.830Z,90.04
2019-03-15T22:41:59.170Z,90.37
2019-03-15T22:44:28.501Z,90.41
2019-03-15T22:46:57.789Z,90.45
2019-03-15T22:49:27.134Z,90.41
2019-03-15T22:51:56.501Z,90.05
2019-03-15T22:54:25.828Z,90.35
2019-03-15T22:56:55.100Z,90.12
2019-03-15T22:59:24.359Z,90.35
2019-03-15T23:01:53.637Z,90.15
2019-03-15T23:04:22.967Z,90.33
2019-03-15T23:06:52.294Z,90.42
2019-03-15T23:09:21.558Z,90.47
2019-03-15T23:11:50.816Z,90.34
2019-03-15T23:14:20.223Z,90.39
2019-03-15T23:16:49.548Z,90.66
2019-03-15T23:19:18.833Z,90.65
2019-03-15T23:21:48.156Z,90.32
2019-03-15T23:24:18.636Z,90.95
2019-03-15T23:26:47.929Z,90.40
2019-03-15T23:29:17.229Z,90.33
2019-03-15T23:31:46.565Z,90.07
2019-03-15T23:34:15.994Z,90.17
2019-03-15T23:36:45.317Z,90.37
2019-03-15T23:39:14.849Z,90.76
2019-03-15T23:41:44.184Z,90.62
2019-03-15T23:44:13.530Z,90.42
2019-03-15T23:46:42.846Z,90.95
2019-03-15T23:49:12.235Z,90.87
2019-03-15T23:51:41.573Z,90.69
2019-03-15T23:54:10.885Z,91.04
2019-03-15T23:56:40.184Z,91.03
2019-03-15T23:59:09.436Z,90.97
